createdAt,value
2018-06-08T00:00:49.489Z,24.37
2018-06-08T00:03:18.898Z,27.70
2018-06-08T00:05:48.271Z,23.30
2018-06-08T00:08:17.766Z,22.23
2018-06-08T00:10:47.210Z,20.57
2018-06-08T00:13:16.696Z,22.67
2018-06-08T00:15:46.135Z,23.23
2018-06-08T00:18:15.975Z,24.17
2018-06-08T00:20:45.090Z,25.60
2018-06-08T00:23:15.000Z,26.67
2018-06-08T00:25:44.996Z,27.93
2018-06-08T00:28:18.797Z,27.50
2018-06-08T00:30:49.334Z,22.27
2018-06-08T00:33:18.672Z,21.00
2018-06-08T00:35:48.650Z,22.10
2018-06-08T00:38:19.894Z,20.27
2018-06-08T00:40:49.972Z,22.43
2018-06-08T00:43:19.354Z,32.70
2018-06-08T00:45:50.270Z,30.63
2018-06-08T00:48:20.435Z,56.10
2018-06-08T00:50:49.792Z,53.03
2018-06-08T00:53:19.179Z,65.57
2018-06-08T00:55:48.512Z,76.87
2018-06-08T00:58:18.680Z,77.10
2018-06-08T01:00:48.822Z,73.43
2018-06-08T01:03:18.179Z,65.23
2018-06-08T01:05:48.559Z,62.80
2018-06-08T01:08:18.359Z,47.27
2018-06-08T01:10:47.530Z,60.17
2018-06-08T01:13:17.513Z,54.53
2018-06-08T01:15:46.857Z,59.20
2018-06-08T01:18:15.940Z,55.73
2018-06-08T01:20:45.951Z,23.13
2018-06-08T01:23:15.431Z,24.00
2018-06-08T01:25:44.923Z,25.10
2018-06-08T01:28:14.289Z,21.47
2018-06-08T01:30:43.640Z,22.17
2018-06-08T01:33:14.009Z,22.77
2018-06-08T01:35:43.089Z,42.40
2018-06-08T01:38:12.485Z,58.30
2018-06-08T01:40:42.176Z,36.27
2018-06-08T01:43:11.556Z,27.03
2018-06-08T01:45:40.984Z,27.23
2018-06-08T01:48:15.585Z,30.53
2018-06-08T01:50:44.992Z,43.30
2018-06-08T01:53:14.976Z,36.03
2018-06-08T01:55:44.056Z,49.87
2018-06-08T01:58:13.550Z,48.13
2018-06-08T02:00:43.022Z,54.73
2018-06-08T02:03:12.466Z,58.13
2018-06-08T02:05:41.858Z,54.10
2018-06-08T02:08:11.858Z,54.23
2018-06-08T02:10:41.322Z,41.63
2018-06-08T02:13:15.681Z,28.73
2018-06-08T02:15:45.108Z,27.37
2018-06-08T02:18:14.575Z,25.13
2018-06-08T02:20:47.991Z,29.50
2018-06-08T02:23:17.935Z,35.43
2018-06-08T02:25:47.441Z,47.70
2018-06-08T02:28:16.829Z,45.27
2018-06-08T02:30:46.296Z,51.57
2018-06-08T02:33:15.837Z,46.93
2018-06-08T02:35:46.060Z,45.67
2018-06-08T02:38:15.493Z,41.50
2018-06-08T02:40:44.894Z,33.17
2018-06-08T02:43:14.256Z,28.03
2018-06-08T02:45:44.534Z,22.60
2018-06-08T02:48:13.977Z,39.03
2018-06-08T02:50:43.866Z,36.80
2018-06-08T02:53:13.295Z,33.53
2018-06-08T02:55:42.723Z,22.60
2018-06-08T02:58:12.209Z,16.57
2018-06-08T03:00:42.193Z,17.47
2018-06-08T03:03:11.666Z,17.50
2018-06-08T03:05:41.184Z,15.53
2018-06-08T03:08:10.635Z,15.13
2018-06-08T03:10:40.032Z,19.30
2018-06-08T03:13:09.485Z,19.60
2018-06-08T03:15:38.816Z,17.13
2018-06-08T03:18:08.267Z,19.77
2018-06-08T03:20:38.331Z,20.73
2018-06-08T03:23:08.422Z,20.53
2018-06-08T03:25:37.848Z,16.43
2018-06-08T03:28:07.217Z,15.10
2018-06-08T03:30:36.997Z,17.50
2018-06-08T03:33:06.815Z,16.40
2018-06-08T03:35:36.317Z,21.50
2018-06-08T03:38:06.236Z,21.37
2018-06-08T03:40:35.675Z,20.67
2018-06-08T03:43:05.412Z,21.07
2018-06-08T03:45:35.533Z,19.13
2018-06-08T03:48:05.604Z,27.07
2018-06-08T03:50:35.056Z,20.23
2018-06-08T03:53:05.032Z,22.47
2018-06-08T03:55:35.354Z,19.57
2018-06-08T03:58:05.695Z,19.60
2018-06-08T04:00:40.487Z,25.70
2018-06-08T04:03:09.954Z,32.93
2018-06-08T04:05:39.926Z,36.03
2018-06-08T04:08:09.278Z,35.47
2018-06-08T04:10:39.925Z,38.83
2018-06-08T04:13:09.996Z,39.23
2018-06-08T04:15:39.104Z,38.93
2018-06-08T04:18:09.898Z,36.27
2018-06-08T04:20:39.241Z,36.70
2018-06-08T04:23:08.571Z,38.83
2018-06-08T04:25:39.338Z,40.43
2018-06-08T04:28:08.800Z,43.57
2018-06-08T04:30:38.205Z,56.27
2018-06-08T04:33:07.666Z,53.63
2018-06-08T04:35:36.818Z,57.37
2018-06-08T04:38:06.240Z,59.83
2018-06-08T04:40:36.257Z,58.87
2018-06-08T04:43:05.793Z,54.27
2018-06-08T04:45:35.212Z,59.17
2018-06-08T04:48:04.633Z,65.33
2018-06-08T04:50:34.067Z,71.67
2018-06-08T04:53:03.509Z,84.13
2018-06-08T04:55:33.007Z,98.57
2018-06-08T04:58:02.498Z,88.20
2018-06-08T05:00:32.384Z,112.67
2018-06-08T05:03:01.730Z,114.17
2018-06-08T05:05:30.790Z,135.57
2018-06-08T05:08:00.137Z,155.43
2018-06-08T05:10:29.547Z,175.07
2018-06-08T05:12:58.892Z,148.73
2018-06-08T05:15:28.344Z,141.17
2018-06-08T05:17:57.713Z,134.80
2018-06-08T05:20:27.164Z,107.40
2018-06-08T05:22:56.661Z,74.27
2018-06-08T05:25:26.020Z,57.87
2018-06-08T05:27:55.492Z,48.57
2018-06-08T05:30:26.662Z,46.27
2018-06-08T05:32:56.716Z,45.97
2018-06-08T05:35:26.162Z,45.63
2018-06-08T05:37:55.603Z,41.43
2018-06-08T05:40:26.200Z,41.20
2018-06-08T05:42:55.659Z,32.43
2018-06-08T05:45:25.235Z,33.87
2018-06-08T05:47:54.608Z,34.13
2018-06-08T05:50:23.981Z,26.50
2018-06-08T05:52:53.418Z,23.70
2018-06-08T05:55:22.769Z,26.53
2018-06-08T05:57:52.352Z,24.13
2018-06-08T06:00:21.861Z,23.30
2018-06-08T06:02:51.400Z,21.03
2018-06-08T06:05:20.899Z,20.30
2018-06-08T06:07:51.229Z,21.90
2018-06-08T06:10:20.611Z,17.67
2018-06-08T06:12:49.731Z,16.20
2018-06-08T06:15:19.099Z,16.60
2018-06-08T06:17:48.485Z,16.93
2018-06-08T06:20:17.973Z,15.40
2018-06-08T06:22:47.849Z,16.23
2018-06-08T06:25:17.233Z,16.47
2018-06-08T06:27:46.347Z,15.93
2018-06-08T06:30:15.837Z,16.83
2018-06-08T06:32:45.297Z,14.90
2018-06-08T06:35:14.675Z,15.07
2018-06-08T06:37:44.284Z,14.33
2018-06-08T06:40:13.668Z,15.53
2018-06-08T06:42:43.550Z,15.17
2018-06-08T06:45:13.366Z,16.27
2018-06-08T06:47:42.801Z,18.07
2018-06-08T06:50:12.201Z,19.50
2018-06-08T06:52:41.655Z,18.93
2018-06-08T06:55:11.106Z,19.67
2018-06-08T06:57:40.476Z,18.30
2018-06-08T07:00:10.366Z,21.53
2018-06-08T07:02:39.927Z,21.47
2018-06-08T07:05:09.444Z,21.70
2018-06-08T07:07:39.458Z,24.10
2018-06-08T07:10:09.959Z,21.27
2018-06-08T07:12:39.122Z,25.13
2018-06-08T07:15:08.586Z,23.90
2018-06-08T07:17:38.008Z,21.87
2018-06-08T07:20:07.435Z,22.13
2018-06-08T07:22:37.515Z,22.83
2018-06-08T07:25:06.909Z,23.03
2018-06-08T07:27:36.289Z,26.27
2018-06-08T07:30:06.037Z,22.97
2018-06-08T07:32:35.513Z,23.27
2018-06-08T07:35:05.047Z,21.47
2018-06-08T07:37:35.133Z,23.97
2018-06-08T07:40:04.663Z,19.33
2018-06-08T07:42:34.359Z,20.17
2018-06-08T07:45:03.754Z,19.23
2018-06-08T07:47:39.947Z,19.03
2018-06-08T07:59:49.381Z,19.10
2018-06-08T08:02:52.579Z,20.73
2018-06-08T08:05:36.175Z,18.10
2018-06-08T08:54:07.190Z,18.00
2018-06-08T08:56:36.727Z,17.43
2018-06-08T08:59:06.187Z,19.53
2018-06-08T09:01:35.612Z,16.97
2018-06-08T09:04:05.118Z,13.60
2018-06-08T09:06:34.679Z,13.93
2018-06-08T09:09:05.240Z,14.37
2018-06-08T09:11:34.336Z,14.53
2018-06-08T09:14:03.519Z,14.67
2018-06-08T09:16:32.966Z,14.17
2018-06-08T09:19:02.849Z,14.47
2018-06-08T09:21:31.934Z,15.20
2018-06-08T09:24:01.363Z,13.20
2018-06-08T09:26:30.733Z,11.50
2018-06-08T09:29:00.072Z,11.67
2018-06-08T09:31:29.544Z,9.33
2018-06-08T09:33:59.382Z,8.73
2018-06-08T09:36:28.735Z,10.83
2018-06-08T09:38:58.746Z,10.97
2018-06-08T09:41:28.075Z,8.07
2018-06-08T09:43:57.414Z,10.63
2018-06-08T09:46:26.868Z,10.30
2018-06-08T09:48:56.321Z,12.03
2018-06-08T09:51:25.760Z,10.37
2018-06-08T09:53:55.123Z,10.83
2018-06-08T09:56:25.242Z,9.50
2018-06-08T09:58:54.574Z,10.70
2018-06-08T10:01:24.026Z,13.77
2018-06-08T10:03:53.076Z,9.70
2018-06-08T10:06:22.434Z,12.40
2018-06-08T10:08:51.798Z,10.17
2018-06-08T10:11:21.280Z,8.50
2018-06-08T10:13:50.668Z,9.23
2018-06-08T10:16:20.051Z,7.90
2018-06-08T10:18:49.385Z,9.00
2018-06-08T10:21:18.783Z,8.60
2018-06-08T10:23:48.132Z,11.23
2018-06-08T10:26:17.567Z,12.53
2018-06-08T10:28:46.911Z,12.57
2018-06-08T10:31:16.443Z,11.30
2018-06-08T10:33:45.775Z,12.03
2018-06-08T10:36:15.183Z,10.30
2018-06-08T10:38:44.658Z,10.00
2018-06-08T10:41:14.073Z,9.53
2018-06-08T10:43:43.460Z,11.30
2018-06-08T10:46:12.888Z,11.50
2018-06-08T10:48:42.280Z,10.03
2018-06-08T10:51:12.140Z,11.87
2018-06-08T10:53:41.540Z,10.97
2018-06-08T10:56:11.458Z,11.60
2018-06-08T10:58:40.809Z,13.67
2018-06-08T11:01:10.203Z,11.23
2018-06-08T11:03:39.602Z,10.97
2018-06-08T11:06:08.662Z,10.63
2018-06-08T11:08:38.022Z,11.90
2018-06-08T11:11:07.463Z,13.27
2018-06-08T11:13:36.868Z,10.13
2018-06-08T11:16:06.308Z,8.87
2018-06-08T11:18:35.370Z,8.20
2018-06-08T11:21:04.740Z,13.77
2018-06-08T11:23:34.725Z,9.40
2018-06-08T11:26:04.054Z,11.33
2018-06-08T11:28:33.425Z,9.90
2018-06-08T11:31:02.492Z,9.83
2018-06-08T11:33:31.879Z,9.93
2018-06-08T11:36:01.258Z,10.60
2018-06-08T11:38:30.637Z,10.27
2018-06-08T11:41:00.107Z,10.20
2018-06-08T11:43:29.447Z,8.70
2018-06-08T11:45:58.848Z,7.43
2018-06-08T11:48:28.181Z,7.27
2018-06-08T11:50:57.552Z,8.77
2018-06-08T11:53:26.907Z,8.97
2018-06-08T11:55:56.423Z,5.80
2018-06-08T11:58:25.760Z,6.10
2018-06-08T12:00:55.135Z,7.53
2018-06-08T12:03:24.501Z,7.73
2018-06-08T12:05:53.860Z,8.80
2018-06-08T12:08:23.198Z,7.07
2018-06-08T12:10:52.824Z,7.37
2018-06-08T12:13:22.180Z,7.40
2018-06-08T12:15:52.472Z,8.23
2018-06-08T12:18:22.550Z,6.80
2018-06-08T12:20:51.903Z,8.63
2018-06-08T12:23:21.270Z,5.17
2018-06-08T12:25:50.657Z,4.67
2018-06-08T12:28:20.091Z,5.80
2018-06-08T12:30:49.484Z,5.63
2018-06-08T12:33:18.504Z,6.00
2018-06-08T12:35:47.933Z,5.53
2018-06-08T12:38:17.345Z,6.37
2018-06-08T12:40:46.683Z,5.40
2018-06-08T12:43:16.143Z,6.20
2018-06-08T12:45:45.611Z,6.90
2018-06-08T12:48:15.025Z,4.77
2018-06-08T12:50:44.961Z,5.93
2018-06-08T12:53:14.427Z,5.27
2018-06-08T12:55:43.981Z,5.10
2018-06-08T12:58:14.783Z,5.87
2018-06-08T13:00:44.013Z,9.60
2018-06-08T13:03:13.345Z,7.60
2018-06-08T13:05:42.883Z,5.70
2018-06-08T13:08:12.934Z,5.90
2018-06-08T13:10:42.395Z,6.30
2018-06-08T13:13:11.839Z,4.60
2018-06-08T13:15:41.506Z,5.90
2018-06-08T13:18:11.038Z,4.93
2018-06-08T13:20:40.422Z,5.10
2018-06-08T13:23:09.917Z,5.77
2018-06-08T13:25:39.536Z,6.00
2018-06-08T13:28:09.304Z,4.10
2018-06-08T13:30:38.676Z,7.03
2018-06-08T13:33:08.189Z,4.47
2018-06-08T13:35:38.651Z,5.20
2018-06-08T13:38:08.174Z,5.70
2018-06-08T13:40:37.496Z,4.90
2018-06-08T13:43:06.896Z,7.57
2018-06-08T13:45:36.380Z,5.27
2018-06-08T13:48:05.762Z,4.50
2018-06-08T13:50:35.294Z,6.97
2018-06-08T13:53:04.645Z,5.63
2018-06-08T13:55:34.047Z,5.67
2018-06-08T13:58:03.512Z,6.83
2018-06-08T14:00:32.836Z,5.47
2018-06-08T14:03:02.423Z,4.60
2018-06-08T14:05:32.170Z,4.40
2018-06-08T14:08:01.505Z,4.80
2018-06-08T14:10:30.950Z,4.80
2018-06-08T14:13:00.296Z,5.27
2018-06-08T14:15:29.733Z,5.30
2018-06-08T14:17:59.036Z,5.50
2018-06-08T14:20:28.361Z,5.90
2018-06-08T14:22:57.712Z,5.07
2018-06-08T14:25:27.034Z,5.13
2018-06-08T14:27:56.408Z,4.87
2018-06-08T14:30:26.202Z,5.57
2018-06-08T14:32:56.023Z,5.47
2018-06-08T14:35:25.582Z,8.40
2018-06-08T14:37:56.173Z,6.80
2018-06-08T14:40:25.613Z,5.23
2018-06-08T14:42:54.990Z,5.60
2018-06-08T14:45:24.392Z,4.90
2018-06-08T14:47:54.306Z,4.73
2018-06-08T14:50:23.676Z,4.67
2018-06-08T14:52:53.134Z,4.67
2018-06-08T14:55:24.407Z,4.20
2018-06-08T14:57:54.835Z,4.87
2018-06-08T15:00:24.845Z,4.67
2018-06-08T15:02:56.234Z,6.73
2018-06-08T15:05:25.738Z,6.57
2018-06-08T15:07:55.793Z,11.43
2018-06-08T15:10:25.154Z,11.50
2018-06-08T15:12:54.703Z,6.13
2018-06-08T15:15:24.518Z,5.23
2018-06-08T15:17:53.868Z,4.97
2018-06-08T15:20:23.331Z,5.40
2018-06-08T15:22:52.787Z,6.67
2018-06-08T15:25:22.565Z,6.53
2018-06-08T15:27:52.053Z,5.50
2018-06-08T15:30:21.862Z,6.00
2018-06-08T15:32:52.135Z,4.27
2018-06-08T15:35:21.689Z,7.40
2018-06-08T15:37:51.119Z,4.33
2018-06-08T15:40:20.714Z,6.73
2018-06-08T15:42:50.525Z,7.40
2018-06-08T15:45:20.367Z,16.27
2018-06-08T15:47:50.894Z,13.87
2018-06-08T15:50:20.356Z,17.00
2018-06-08T15:52:49.739Z,8.13
2018-06-08T15:55:19.433Z,9.97
2018-06-08T15:57:48.818Z,7.73
2018-06-08T16:00:18.330Z,6.33
2018-06-08T16:02:48.708Z,7.77
2018-06-08T16:05:19.449Z,8.50
2018-06-08T16:07:48.844Z,7.53
2018-06-08T16:10:18.216Z,7.13
2018-06-08T16:12:48.270Z,5.90
2018-06-08T16:15:18.246Z,7.47
2018-06-08T16:17:47.651Z,5.30
2018-06-08T16:20:25.223Z,7.40
2018-06-08T16:22:54.637Z,5.60
2018-06-08T16:25:24.104Z,7.97
2018-06-08T16:27:53.488Z,10.57
2018-06-08T16:30:22.876Z,4.83
2018-06-08T16:32:52.217Z,5.17
2018-06-08T16:35:21.660Z,5.87
2018-06-08T16:37:51.098Z,4.10
2018-06-08T16:40:20.519Z,5.57
2018-06-08T16:42:49.880Z,7.13
2018-06-08T16:45:20.283Z,8.60
2018-06-08T16:47:50.091Z,6.37
2018-06-08T16:50:19.465Z,9.63
2018-06-08T16:52:48.823Z,7.27
2018-06-08T16:55:19.179Z,6.10
2018-06-08T16:57:48.568Z,5.13
2018-06-08T17:00:18.435Z,8.33
2018-06-08T17:02:48.827Z,6.97
2018-06-08T17:05:19.234Z,5.23
2018-06-08T17:07:48.746Z,5.63
2018-06-08T17:10:19.773Z,6.17
2018-06-08T17:12:49.592Z,5.90
2018-06-08T17:15:19.594Z,6.33
2018-06-08T17:17:48.925Z,6.80
2018-06-08T17:20:18.288Z,8.70
2018-06-08T17:22:48.154Z,4.53
2018-06-08T17:25:17.502Z,6.03
2018-06-08T17:27:47.452Z,6.40
2018-06-08T17:30:16.934Z,4.67
2018-06-08T17:32:46.386Z,5.93
2018-06-08T17:35:15.750Z,4.73
2018-06-08T17:37:45.322Z,6.03
2018-06-08T17:40:15.785Z,4.87
2018-06-08T17:42:45.349Z,8.07
2018-06-08T17:45:15.251Z,6.97
2018-06-08T17:47:44.710Z,8.33
2018-06-08T17:50:14.929Z,6.80
2018-06-08T17:52:44.405Z,6.60
2018-06-08T17:55:13.779Z,4.80
2018-06-08T17:57:43.863Z,6.50
2018-06-08T18:00:18.459Z,8.17
2018-06-08T18:02:47.886Z,6.13
2018-06-08T18:05:19.279Z,7.67
2018-06-08T18:07:49.975Z,10.17
2018-06-08T18:10:19.829Z,7.93
2018-06-08T18:12:49.358Z,6.30
2018-06-08T18:15:20.965Z,6.70
2018-06-08T18:17:50.991Z,6.57
2018-06-08T18:20:20.830Z,5.73
2018-06-08T18:22:50.206Z,6.40
2018-06-08T18:25:19.908Z,6.57
2018-06-08T18:27:50.193Z,5.00
2018-06-08T18:30:26.898Z,7.53
2018-06-08T18:32:56.347Z,5.23
2018-06-08T18:35:26.548Z,3.80
2018-06-08T18:37:55.941Z,4.57
2018-06-08T18:40:28.164Z,3.97
2018-06-08T18:42:57.605Z,6.33
2018-06-08T18:45:27.083Z,6.27
2018-06-08T18:47:57.295Z,4.73
2018-06-08T18:50:27.147Z,2.97
2018-06-08T18:52:56.566Z,5.97
2018-06-08T18:55:26.077Z,8.43
2018-06-08T18:57:55.470Z,4.17
2018-06-08T19:00:24.834Z,4.70
2018-06-08T19:02:54.304Z,10.40
2018-06-08T19:05:23.765Z,4.77
2018-06-08T19:07:53.084Z,3.40
2018-06-08T19:10:23.090Z,5.27
2018-06-08T19:12:52.538Z,2.80
2018-06-08T19:15:23.332Z,3.10
2018-06-08T19:17:53.226Z,4.43
2018-06-08T19:20:22.690Z,3.00
2018-06-08T19:22:52.058Z,3.60
2018-06-08T19:25:21.980Z,3.63
2018-06-08T19:27:52.607Z,4.87
2018-06-08T19:30:23.759Z,4.93
2018-06-08T19:32:54.431Z,2.50
2018-06-08T19:35:24.590Z,4.53
2018-06-08T19:37:58.289Z,4.37
2018-06-08T19:40:28.255Z,2.97
2018-06-08T19:42:57.643Z,3.23
2018-06-08T19:45:28.145Z,2.60
2018-06-08T19:47:57.741Z,3.20
2018-06-08T19:50:28.538Z,4.83
2018-06-08T19:52:57.908Z,3.00
2018-06-08T19:55:28.127Z,4.10
2018-06-08T19:57:58.232Z,2.97
2018-06-08T20:00:27.733Z,3.13
2018-06-08T20:02:57.135Z,4.37
2018-06-08T20:05:26.588Z,4.00
2018-06-08T20:07:56.177Z,3.70
2018-06-08T20:10:25.554Z,2.73
2018-06-08T20:12:54.959Z,2.63
2018-06-08T20:15:24.398Z,4.20
2018-06-08T20:17:54.052Z,3.00
2018-06-08T20:20:23.536Z,3.37
2018-06-08T20:22:52.573Z,4.57
2018-06-08T20:25:21.920Z,2.80
2018-06-08T20:27:51.532Z,4.80
2018-06-08T20:30:20.976Z,3.10
2018-06-08T20:32:50.378Z,3.97
2018-06-08T20:35:19.834Z,4.37
2018-06-08T20:37:49.402Z,6.63
2018-06-08T20:40:18.920Z,4.50
2018-06-08T20:42:48.324Z,6.87
2018-06-08T20:45:17.770Z,3.27
2018-06-08T20:47:46.900Z,3.63
2018-06-08T20:50:16.449Z,6.77
2018-06-08T20:52:47.254Z,5.40
2018-06-08T20:55:16.645Z,6.37
2018-06-08T20:57:57.294Z,5.17
2018-06-08T21:00:27.008Z,5.27
2018-06-08T21:02:56.595Z,3.93
2018-06-08T21:05:25.683Z,5.70
2018-06-08T21:07:54.874Z,5.53
2018-06-08T21:10:24.289Z,5.07
2018-06-08T21:12:53.328Z,6.73
2018-06-08T21:15:22.979Z,6.10
2018-06-08T21:17:53.115Z,3.43
2018-06-08T21:20:22.639Z,7.00
2018-06-08T21:22:51.985Z,4.60
2018-06-08T21:25:21.521Z,5.80
2018-06-08T21:27:50.690Z,6.10
2018-06-08T21:30:20.221Z,5.67
2018-06-08T21:32:50.571Z,4.03
2018-06-08T21:35:20.118Z,5.93
2018-06-08T21:37:49.840Z,4.10
2018-06-08T21:40:19.478Z,5.20
2018-06-08T21:42:49.456Z,5.03
2018-06-08T21:45:18.849Z,7.60
2018-06-08T21:47:48.366Z,4.53
2018-06-08T21:50:17.774Z,4.40
2018-06-08T21:52:47.295Z,5.23
2018-06-08T21:55:16.728Z,5.53
2018-06-08T21:57:46.160Z,4.33
2018-06-08T22:00:15.663Z,4.53
2018-06-08T22:02:45.113Z,7.97
2018-06-08T22:05:14.244Z,5.70
2018-06-08T22:07:43.775Z,4.27
2018-06-08T22:10:13.738Z,6.10
2018-06-08T22:12:43.151Z,5.17
2018-06-08T22:15:12.296Z,4.13
2018-06-08T22:17:41.755Z,7.03
2018-06-08T22:20:11.270Z,6.67
2018-06-08T22:22:40.717Z,5.97
2018-06-08T22:25:10.126Z,6.73
2018-06-08T22:27:39.588Z,6.83
2018-06-08T22:30:09.133Z,5.70
2018-06-08T22:32:39.196Z,5.10
2018-06-08T22:35:08.903Z,4.50
2018-06-08T22:37:38.301Z,3.77
2018-06-08T22:40:07.983Z,5.50
2018-06-08T22:42:37.355Z,4.50
2018-06-08T22:45:06.841Z,4.83
2018-06-08T22:47:36.214Z,5.97
2018-06-08T22:50:05.769Z,8.27
2018-06-08T22:52:35.291Z,3.27
2018-06-08T22:55:04.703Z,4.37
2018-06-08T22:57:34.851Z,4.70
2018-06-08T23:00:04.321Z,4.80
2018-06-08T23:02:33.839Z,3.77
2018-06-08T23:05:03.169Z,4.07
2018-06-08T23:07:32.510Z,5.27
2018-06-08T23:10:02.710Z,5.10
2018-06-08T23:12:33.572Z,5.50
2018-06-08T23:15:03.050Z,4.57
2018-06-08T23:17:33.042Z,5.03
2018-06-08T23:20:02.576Z,3.77
2018-06-08T23:22:33.584Z,4.20
2018-06-08T23:25:02.716Z,4.40
2018-06-08T23:27:32.090Z,4.93
2018-06-08T23:30:01.609Z,3.37
2018-06-08T23:32:31.543Z,4.30
2018-06-08T23:35:01.006Z,8.13
2018-06-08T23:37:30.469Z,6.93
2018-06-08T23:40:00.431Z,4.47
2018-06-08T23:42:29.832Z,5.47
2018-06-08T23:44:58.908Z,5.27
2018-06-08T23:47:28.282Z,4.87
2018-06-08T23:49:57.658Z,4.07
2018-06-08T23:52:27.171Z,4.73
2018-06-08T23:54:56.918Z,7.63
2018-06-08T23:57:26.477Z,4.70
2018-06-08T23:59:56.086Z,6.00
